sensor_id;sensor_type;location;lat;lon;timestamp;pressure;altitude;pressure_sealevel;temperature;humidity
26438;BME280;14133;48.430;9.888;2022-09-09T00:20:01;94797.66;;;18.91;61.85
26438;BME280;14133;48.430;9.888;2022-09-09T00:29:50;94795.34;;;18.93;61.36
26438;BME280;14133;48.430;9.888;2022-09-09T00:39:41;94794.19;;;18.87;62.07
26438;BME280;14133;48.430;9.888;2022-09-09T00:59:51;94824.31;;;19.04;61.21
26438;BME280;14133;48.430;9.888;2022-09-09T01:19:26;94786.47;;;18.75;61.32
26438;BME280;14133;48.430;9.888;2022-09-09T01:29:15;94795.75;;;18.84;61.80
26438;BME280;14133;48.430;9.888;2022-09-09T01:38:57;94771.81;;;18.61;61.45
26438;BME280;14133;48.430;9.888;2022-09-09T01:48:39;94782.22;;;18.74;61.39
26438;BME280;14133;48.430;9.888;2022-09-09T01:58:32;94766.81;;;18.67;61.31
26438;BME280;14133;48.430;9.888;2022-09-09T02:08:33;94762.94;;;18.68;61.57
26438;BME280;14133;48.430;9.888;2022-09-09T02:18:24;94793.03;;;18.84;61.22
26438;BME280;14133;48.430;9.888;2022-09-09T02:28:07;94789.56;;;18.80;60.84
26438;BME280;14133;48.430;9.888;2022-09-09T02:37:52;94774.53;;;18.61;61.02
26438;BME280;14133;48.430;9.888;2022-09-09T02:47:46;94805.78;;;18.77;61.16
26438;BME280;14133;48.430;9.888;2022-09-09T02:57:30;94752.94;;;18.43;61.03
26438;BME280;14133;48.430;9.888;2022-09-09T03:07:11;94756.03;;;18.38;61.60
26438;BME280;14133;48.430;9.888;2022-09-09T03:16:53;94786.09;;;18.65;61.31
26438;BME280;14133;48.430;9.888;2022-09-09T03:26:33;94773.00;;;18.53;61.61
26438;BME280;14133;48.430;9.888;2022-09-09T03:36:14;94788.03;;;18.47;61.18
26438;BME280;14133;48.430;9.888;2022-09-09T03:45:55;94810.41;;;18.54;61.55
26438;BME280;14133;48.430;9.888;2022-09-09T03:55:36;94775.28;;;18.33;61.91
26438;BME280;14133;48.430;9.888;2022-09-09T04:05:17;94783.78;;;18.49;61.95
26438;BME280;14133;48.430;9.888;2022-09-09T04:14:57;94784.94;;;18.30;62.16
26438;BME280;14133;48.430;9.888;2022-09-09T04:24:38;94798.06;;;18.46;62.30
26438;BME280;14133;48.430;9.888;2022-09-09T04:34:18;94781.84;;;18.28;62.20
26438;BME280;14133;48.430;9.888;2022-09-09T04:43:58;94777.59;;;18.31;62.28
26438;BME280;14133;48.430;9.888;2022-09-09T04:53:40;94803.06;;;18.41;62.13
26438;BME280;14133;48.430;9.888;2022-09-09T05:03:21;94792.66;;;18.28;62.72
26438;BME280;14133;48.430;9.888;2022-09-09T05:13:01;94778.75;;;18.19;62.55
26438;BME280;14133;48.430;9.888;2022-09-09T05:22:42;94799.59;;;18.26;62.61
26438;BME280;14133;48.430;9.888;2022-09-09T05:32:22;94800.75;;;18.28;62.69
26438;BME280;14133;48.430;9.888;2022-09-09T05:42:03;94776.03;;;18.04;62.94
26438;BME280;14133;48.430;9.888;2022-09-09T05:51:44;94827.38;;;18.37;63.14
26438;BME280;14133;48.430;9.888;2022-09-09T06:01:27;94823.53;;;18.38;63.56
26438;BME280;14133;48.430;9.888;2022-09-09T06:11:11;94803.84;;;18.37;63.43
26438;BME280;14133;48.430;9.888;2022-09-09T06:21:00;94816.91;;;18.17;63.60
26438;BME280;14133;48.430;9.888;2022-09-09T06:30:41;94801.47;;;18.14;63.63
26438;BME280;14133;48.430;9.888;2022-09-09T06:40:21;94830.03;;;18.33;63.55
26438;BME280;14133;48.430;9.888;2022-09-09T06:50:02;94777.56;;;18.02;63.75
26438;BME280;14133;48.430;9.888;2022-09-09T06:59:42;94785.28;;;18.07;64.01
26438;BME280;14133;48.430;9.888;2022-09-09T07:09:23;94816.91;;;18.21;64.19
26438;BME280;14133;48.430;9.888;2022-09-09T07:19:04;94838.94;;;18.37;64.75
26438;BME280;14133;48.430;9.888;2022-09-09T07:28:45;94838.91;;;18.23;64.73
26438;BME280;14133;48.430;9.888;2022-09-09T07:38:25;94810.72;;;17.99;65.08
26438;BME280;14133;48.430;9.888;2022-09-09T07:48:06;94857.81;;;18.34;65.14
26438;BME280;14133;48.430;9.888;2022-09-09T07:57:46;94860.16;;;18.39;65.40
26438;BME280;14133;48.430;9.888;2022-09-09T08:07:27;94842.00;;;18.29;65.12
26438;BME280;14133;48.430;9.888;2022-09-09T08:17:07;94872.88;;;18.42;65.84
26438;BME280;14133;48.430;9.888;2022-09-09T08:26:48;94868.66;;;18.45;65.87
26438;BME280;14133;48.430;9.888;2022-09-09T08:36:32;94854.75;;;18.46;65.67
26438;BME280;14133;48.430;9.888;2022-09-09T08:46:27;94880.63;;;18.69;65.79
26438;BME280;14133;48.430;9.888;2022-09-09T08:56:32;94887.22;;;18.72;66.30
26438;BME280;14133;48.430;9.888;2022-09-09T09:16:58;94881.06;;;19.07;65.79
26438;BME280;14133;48.430;9.888;2022-09-09T09:26:39;94835.13;;;18.96;65.07
26438;BME280;14133;48.430;9.888;2022-09-09T09:36:24;94813.88;;;18.80;65.19
26438;BME280;14133;48.430;9.888;2022-09-09T09:46:25;94816.97;;;18.90;65.04
26438;BME280;14133;48.430;9.888;2022-09-09T09:56:11;94799.22;;;18.96;64.85
26438;BME280;14133;48.430;9.888;2022-09-09T10:05:54;94788.81;;;19.05;64.56
26438;BME280;14133;48.430;9.888;2022-09-09T10:15:50;94872.47;;;19.63;64.56
26438;BME280;14133;48.430;9.888;2022-09-09T10:25:52;94840.78;;;19.67;63.80
26438;BME280;14133;48.430;9.888;2022-09-09T10:36:06;94816.09;;;19.54;63.26
26438;BME280;14133;48.430;9.888;2022-09-09T10:55:50;94776.00;;;19.27;65.11
26438;BME280;14133;48.430;9.888;2022-09-09T11:05:45;94850.03;;;19.77;68.55
26438;BME280;14133;48.430;9.888;2022-09-09T11:15:36;94779.00;;;19.55;66.77
26438;BME280;14133;48.430;9.888;2022-09-09T11:35:41;94849.22;;;19.84;67.55
26438;BME280;14133;48.430;9.888;2022-09-09T11:45:28;94819.88;;;19.79;67.92
26438;BME280;14133;48.430;9.888;2022-09-09T11:55:11;94786.59;;;19.89;66.78
26438;BME280;14133;48.430;9.888;2022-09-09T12:05:09;94823.84;;;20.34;65.75
26438;BME280;14133;48.430;9.888;2022-09-09T12:14:59;94800.53;;;20.47;65.30
26438;BME280;14133;48.430;9.888;2022-09-09T12:24:45;94775.47;;;20.36;65.30
26438;BME280;14133;48.430;9.888;2022-09-09T12:34:38;94760.75;;;20.41;64.95
26438;BME280;14133;48.430;9.888;2022-09-09T12:44:19;94771.41;;;20.10;66.07
26438;BME280;14133;48.430;9.888;2022-09-09T12:53:59;94784.13;;;20.16;66.56
26438;BME280;14133;48.430;9.888;2022-09-09T13:03:51;94752.13;;;20.00;66.84
26438;BME280;14133;48.430;9.888;2022-09-09T13:13:40;94728.19;;;19.95;66.49
26438;BME280;14133;48.430;9.888;2022-09-09T13:42:55;94728.63;;;20.43;66.36
26438;BME280;14133;48.430;9.888;2022-09-09T13:52:35;94710.28;;;20.12;66.53
26438;BME280;14133;48.430;9.888;2022-09-09T14:02:16;94714.63;;;19.99;67.25
26438;BME280;14133;48.430;9.888;2022-09-09T14:11:56;94694.69;;;19.71;67.72
26438;BME280;14133;48.430;9.888;2022-09-09T14:21:37;94683.56;;;19.54;68.68
26438;BME280;14133;48.430;9.888;2022-09-09T14:31:18;94695.47;;;19.71;68.58
26438;BME280;14133;48.430;9.888;2022-09-09T14:41:00;94757.09;;;20.09;68.38
26438;BME280;14133;48.430;9.888;2022-09-09T14:50:43;94735.22;;;19.82;68.87
26438;BME280;14133;48.430;9.888;2022-09-09T15:00:23;94764.91;;;19.96;68.92
26438;BME280;14133;48.430;9.888;2022-09-09T15:10:08;94734.06;;;19.75;68.99
26438;BME280;14133;48.430;9.888;2022-09-09T15:19:49;94771.09;;;19.97;69.15
26438;BME280;14133;48.430;9.888;2022-09-09T15:29:30;94739.47;;;19.75;70.14
26438;BME280;14133;48.430;9.888;2022-09-09T15:39:30;94772.63;;;19.98;70.58
26438;BME280;14133;48.430;9.888;2022-09-09T15:59:08;94696.38;;;19.43;69.15
26438;BME280;14133;48.430;9.888;2022-09-09T16:08:52;94696.75;;;19.45;68.66
26438;BME280;14133;48.430;9.888;2022-09-09T16:18:46;94707.22;;;19.32;68.67
26438;BME280;14133;48.430;9.888;2022-09-09T16:28:35;94723.84;;;19.30;69.21
26438;BME280;14133;48.430;9.888;2022-09-09T16:38:19;94720.41;;;19.23;69.10
26438;BME280;14133;48.430;9.888;2022-09-09T16:57:51;94746.31;;;19.17;69.39
26438;BME280;14133;48.430;9.888;2022-09-09T17:07:38;94732.41;;;19.07;69.94
26438;BME280;14133;48.430;9.888;2022-09-09T17:17:23;94746.31;;;19.09;70.75
26438;BME280;14133;48.430;9.888;2022-09-09T17:27:09;94819.19;;;19.53;72.72
26438;BME280;14133;48.430;9.888;2022-09-09T17:46:42;94748.63;;;18.93;65.24
26438;BME280;14133;48.430;9.888;2022-09-09T17:56:29;94776.06;;;18.88;66.06
26438;BME280;14133;48.430;9.888;2022-09-09T18:06:19;94793.41;;;18.87;67.00
26438;BME280;14133;48.430;9.888;2022-09-09T18:16:07;94798.47;;;18.77;69.57
26438;BME280;14133;48.430;9.888;2022-09-09T18:26:14;94810.41;;;18.76;71.39
26438;BME280;14133;48.430;9.888;2022-09-09T18:35:55;94829.72;;;18.78;72.33
26438;BME280;14133;48.430;9.888;2022-09-09T18:55:26;94924.31;;;19.18;73.59
26438;BME280;14133;48.430;9.888;2022-09-09T19:15:00;94860.19;;;18.64;73.07
26438;BME280;14133;48.430;9.888;2022-09-09T19:34:36;94887.19;;;18.61;71.16
26438;BME280;14133;48.430;9.888;2022-09-09T19:54:26;94924.25;;;18.75;71.53
26438;BME280;14133;48.430;9.888;2022-09-09T20:04:07;94906.47;;;18.59;70.63
26438;BME280;14133;48.430;9.888;2022-09-09T20:23:46;94881.00;;;18.46;70.35
26438;BME280;14133;48.430;9.888;2022-09-09T20:33:27;94904.16;;;18.54;70.63
26438;BME280;14133;48.430;9.888;2022-09-09T20:43:10;94937.38;;;18.76;70.19
26438;BME280;14133;48.430;9.888;2022-09-09T20:52:52;94943.94;;;18.72;69.94
26438;BME280;14133;48.430;9.888;2022-09-09T21:02:33;94948.16;;;18.65;69.99
26438;BME280;14133;48.430;9.888;2022-09-09T21:12:18;94949.31;;;18.61;69.62
26438;BME280;14133;48.430;9.888;2022-09-09T21:52:19;94934.16;;;18.34;69.29
26438;BME280;14133;48.430;9.888;2022-09-09T22:01:59;94983.25;;;18.58;69.46
26438;BME280;14133;48.430;9.888;2022-09-09T22:11:40;94979.78;;;18.58;69.43
26438;BME280;14133;48.430;9.888;2022-09-09T22:21:21;94999.88;;;18.75;68.92
26438;BME280;14133;48.430;9.888;2022-09-09T22:31:02;94965.09;;;18.55;68.91
26438;BME280;14133;48.430;9.888;2022-09-09T22:40:42;94984.81;;;18.70;69.65
26438;BME280;14133;48.430;9.888;2022-09-09T22:50:22;94964.31;;;18.47;69.41
26438;BME280;14133;48.430;9.888;2022-09-09T23:00:05;94947.31;;;18.36;69.29
26438;BME280;14133;48.430;9.888;2022-09-09T23:09:49;94947.31;;;18.32;69.55
26438;BME280;14133;48.430;9.888;2022-09-09T23:19:29;94996.38;;;18.60;69.54
26438;BME280;14133;48.430;9.888;2022-09-09T23:29:11;94943.75;;;18.21;69.48
26438;BME280;14133;48.430;9.888;2022-09-09T23:38:53;94995.22;;;18.57;69.83
26438;BME280;14133;48.430;9.888;2022-09-09T23:48:37;94965.81;;;18.34;69.21
26438;BME280;14133;48.430;9.888;2022-09-09T23:58:18;94994.81;;;18.55;69.81
